Terminal Aerodrome Forecast
Issued by NWS

Home | Current Version | Previous Version | Graphics & Text | Print | Product List | Glossary On
Versions: 1 2 3 4 5 6 7 8 9 10 11 12 13 14 15 16
000
FTUS43 KICT 212300
TAFRSL
TAF
KRSL 212337Z 2200/2224 18016G23KT P6SM VCTS BKN100CB
     FM220300 19012KT P6SM VCTS BKN100CB
     FM220500 VRB03KT P6SM VCTS OVC090CB
     FM221600 19012KT P6SM SCT120=

USA.gov is the U.S. government's official web portal to all federal, state and local government web resources and services.